createdAt,value
2019-05-22T00:01:56.594Z,11.60
2019-05-22T00:04:28.598Z,11.60
2019-05-22T00:07:00.767Z,11.60
2019-05-22T00:09:42.177Z,11.60
2019-05-22T00:12:20.589Z,11.60
2019-05-22T00:14:52.677Z,11.70
2019-05-22T00:17:30.409Z,11.60
2019-05-22T00:20:01.585Z,11.60
2019-05-22T00:22:33.512Z,11.70
2019-05-22T00:25:05.353Z,11.70
2019-05-22T00:27:35.135Z,11.70
2019-05-22T00:30:06.284Z,11.70
2019-05-22T00:32:36.971Z,11.60
2019-05-22T00:35:08.910Z,11.70
2019-05-22T00:37:40.233Z,11.70
2019-05-22T00:40:12.121Z,11.60
2019-05-22T00:42:45.171Z,11.60
2019-05-22T00:45:15.436Z,11.70
2019-05-22T00:47:44.822Z,11.60
2019-05-22T00:50:20.961Z,11.70
2019-05-22T00:53:00.712Z,11.60
2019-05-22T00:55:52.050Z,11.60
2019-05-22T00:58:30.019Z,11.60
2019-05-22T01:01:12.557Z,11.60
2019-05-22T01:03:43.472Z,11.60
2019-05-22T01:06:15.439Z,11.60
2019-05-22T01:08:48.328Z,11.60
2019-05-22T01:11:21.870Z,11.60
2019-05-22T01:13:51.710Z,11.60
2019-05-22T01:16:22.990Z,11.50
2019-05-22T01:18:53.736Z,11.50
2019-05-22T01:21:25.004Z,11.50
2019-05-22T01:23:58.203Z,11.50
2019-05-22T01:26:29.009Z,11.50
2019-05-22T01:28:59.148Z,11.60
2019-05-22T01:31:37.287Z,11.50
2019-05-22T01:34:12.215Z,11.50
2019-05-22T01:36:47.569Z,11.50
2019-05-22T01:39:36.996Z,11.50
2019-05-22T01:42:08.244Z,11.50
2019-05-22T01:44:37.786Z,11.50
2019-05-22T01:47:13.317Z,11.60
2019-05-22T01:49:51.573Z,11.50
2019-05-22T01:52:21.300Z,11.50
2019-05-22T01:54:52.631Z,11.50
2019-05-22T01:57:24.229Z,11.50
2019-05-22T01:59:55.599Z,11.50
2019-05-22T02:02:26.587Z,11.60
2019-05-22T02:04:58.537Z,11.60
2019-05-22T02:07:30.941Z,11.60
2019-05-22T02:10:02.067Z,11.60
2019-05-22T02:12:41.135Z,11.60
2019-05-22T02:15:12.742Z,11.60
2019-05-22T02:17:42.655Z,11.50
2019-05-22T02:20:14.133Z,11.60
2019-05-22T02:22:44.685Z,11.50
2019-05-22T02:25:14.101Z,11.50
2019-05-22T02:27:44.077Z,11.50
2019-05-22T02:30:14.458Z,11.60
2019-05-22T02:32:45.627Z,11.50
2019-05-22T02:35:15.248Z,11.50
2019-05-22T02:37:45.027Z,11.60
2019-05-22T02:40:19.565Z,11.50
2019-05-22T02:42:50.555Z,11.50
2019-05-22T02:45:19.992Z,11.50
2019-05-22T02:47:50.311Z,11.50
2019-05-22T02:50:19.974Z,11.50
2019-05-22T02:52:50.189Z,11.50
2019-05-22T02:55:19.892Z,11.50
2019-05-22T02:57:50.198Z,11.50
2019-05-22T03:00:19.892Z,11.50
2019-05-22T03:02:52.053Z,11.50
2019-05-22T03:05:22.772Z,11.50
2019-05-22T03:07:52.865Z,11.50
2019-05-22T03:10:25.339Z,11.40
2019-05-22T03:12:56.063Z,11.40
2019-05-22T03:15:25.904Z,11.40
2019-05-22T03:18:01.837Z,11.40
2019-05-22T03:20:33.163Z,11.40
2019-05-22T03:23:12.894Z,11.40
2019-05-22T03:25:43.584Z,11.40
2019-05-22T03:28:13.892Z,11.40
2019-05-22T03:30:45.024Z,11.30
2019-05-22T03:33:15.400Z,11.40
2019-05-22T03:35:51.050Z,11.30
2019-05-22T03:38:22.584Z,11.40
2019-05-22T03:40:53.062Z,11.40
2019-05-22T03:43:24.506Z,11.40
2019-05-22T03:45:56.111Z,11.40
2019-05-22T03:48:27.695Z,11.30
2019-05-22T03:51:00.733Z,11.30
2019-05-22T03:53:30.474Z,11.30
2019-05-22T03:56:00.851Z,11.30
2019-05-22T03:58:31.157Z,11.30
2019-05-22T04:01:03.597Z,11.30
2019-05-22T04:03:33.130Z,11.30
2019-05-22T04:06:04.402Z,11.30
2019-05-22T04:08:34.702Z,11.20
2019-05-22T04:11:07.440Z,11.20
2019-05-22T04:13:36.830Z,11.30
2019-05-22T04:16:09.115Z,11.30
2019-05-22T04:18:40.714Z,11.30
2019-05-22T04:21:10.177Z,11.30
2019-05-22T04:23:40.134Z,11.30
2019-05-22T04:26:12.646Z,11.30
2019-05-22T04:28:51.120Z,11.30
2019-05-22T04:31:31.733Z,11.30
2019-05-22T04:34:01.308Z,11.30
2019-05-22T04:36:30.768Z,11.30
2019-05-22T04:39:02.179Z,11.30
2019-05-22T04:41:32.987Z,11.40
2019-05-22T04:44:05.074Z,11.40
2019-05-22T04:46:34.500Z,11.40
2019-05-22T04:49:04.219Z,11.40
2019-05-22T04:51:33.904Z,11.40
2019-05-22T04:54:03.350Z,11.40
2019-05-22T04:56:32.846Z,11.40
2019-05-22T04:59:03.576Z,11.40
2019-05-22T05:01:33.494Z,11.40
2019-05-22T05:04:02.960Z,11.40
2019-05-22T05:06:35.596Z,11.40
2019-05-22T05:09:08.132Z,11.50
2019-05-22T05:11:38.287Z,11.50
2019-05-22T05:14:07.734Z,11.50
2019-05-22T05:16:37.459Z,11.50
2019-05-22T05:19:07.036Z,11.50
2019-05-22T05:21:38.395Z,11.50
2019-05-22T05:24:08.236Z,11.50
2019-05-22T05:26:39.077Z,11.50
2019-05-22T05:29:15.072Z,11.60
2019-05-22T05:31:44.605Z,11.60
2019-05-22T05:34:23.079Z,11.60
2019-05-22T05:36:52.959Z,11.60
2019-05-22T05:40:03.860Z,11.60
2019-05-22T05:42:33.714Z,11.70
2019-05-22T05:45:03.435Z,11.70
2019-05-22T05:47:32.952Z,11.70
2019-05-22T05:50:03.480Z,11.70
2019-05-22T05:52:34.442Z,11.70
2019-05-22T05:55:04.073Z,11.80
2019-05-22T05:58:30.844Z,11.80
2019-05-22T06:01:11.747Z,11.80
2019-05-22T06:03:42.391Z,11.80
2019-05-22T06:07:00.497Z,11.80
2019-05-22T06:09:29.063Z,11.80
2019-05-22T06:12:05.193Z,11.90
2019-05-22T06:14:35.470Z,11.90
2019-05-22T06:17:44.592Z,11.90
2019-05-22T06:20:19.289Z,12.00
2019-05-22T06:23:44.899Z,12.10
2019-05-22T06:26:34.063Z,12.10
2019-05-22T06:29:05.086Z,12.10
2019-05-22T06:31:41.378Z,12.10
2019-05-22T06:34:11.390Z,12.10
2019-05-22T06:36:41.025Z,12.20
2019-05-22T06:39:17.146Z,12.20
2019-05-22T06:41:48.518Z,12.20
2019-05-22T06:44:36.136Z,12.20
2019-05-22T06:47:08.341Z,12.20
2019-05-22T06:49:40.280Z,12.30
2019-05-22T06:52:11.145Z,12.40
2019-05-22T06:54:40.812Z,12.40
2019-05-22T06:57:15.100Z,12.50
2019-05-22T06:59:46.412Z,12.40
2019-05-22T07:02:19.387Z,12.40
2019-05-22T07:04:49.849Z,12.40
2019-05-22T07:07:20.008Z,12.40
2019-05-22T07:09:50.525Z,12.40
2019-05-22T07:12:23.175Z,12.40
2019-05-22T07:15:28.589Z,12.50
2019-05-22T07:17:58.803Z,12.60
2019-05-22T07:20:32.458Z,12.70
2019-05-22T07:23:03.771Z,12.70
2019-05-22T07:25:35.450Z,12.70
2019-05-22T07:28:07.148Z,12.60
2019-05-22T07:30:36.750Z,12.60
2019-05-22T07:33:06.335Z,12.60
2019-05-22T07:35:56.454Z,12.60
2019-05-22T07:38:07.218Z,12.60
2019-05-22T07:40:37.458Z,12.60
2019-05-22T07:43:07.692Z,12.50
2019-05-22T07:45:39.540Z,12.40
2019-05-22T07:48:10.373Z,12.40
2019-05-22T07:50:48.852Z,12.30
2019-05-22T07:53:18.087Z,12.30
2019-05-22T07:55:50.917Z,12.30
2019-05-22T07:58:20.913Z,12.50
2019-05-22T08:00:56.669Z,12.60
2019-05-22T08:03:27.148Z,12.60
2019-05-22T08:05:58.725Z,12.70
2019-05-22T08:08:31.734Z,12.70
2019-05-22T08:11:01.683Z,12.60
2019-05-22T08:13:32.243Z,12.60
2019-05-22T08:16:02.567Z,12.60
2019-05-22T08:18:34.848Z,12.60
2019-05-22T08:21:04.686Z,12.70
2019-05-22T08:23:34.611Z,12.80
2019-05-22T08:26:04.902Z,12.80
2019-05-22T08:28:34.806Z,12.80
2019-05-22T08:31:06.543Z,12.80
2019-05-22T08:33:39.168Z,12.70
2019-05-22T08:36:09.492Z,12.70
2019-05-22T08:38:39.444Z,12.60
2019-05-22T08:41:10.935Z,12.60
2019-05-22T08:44:11.313Z,12.70
2019-05-22T08:46:13.600Z,12.80
2019-05-22T08:48:47.929Z,13.00
2019-05-22T08:51:18.180Z,13.20
2019-05-22T08:53:48.775Z,13.30
2019-05-22T08:56:19.722Z,13.30
2019-05-22T08:58:49.941Z,13.40
2019-05-22T09:01:19.441Z,13.30
2019-05-22T09:03:49.079Z,13.20
2019-05-22T09:06:18.539Z,13.20
2019-05-22T09:08:48.077Z,13.30
2019-05-22T09:11:17.514Z,13.30
2019-05-22T09:13:46.951Z,13.40
2019-05-22T09:16:16.587Z,13.50
2019-05-22T09:18:46.075Z,13.50
2019-05-22T09:21:15.562Z,13.50
2019-05-22T09:23:45.723Z,13.60
2019-05-22T09:26:15.371Z,13.60
2019-05-22T09:28:45.247Z,13.60
2019-05-22T09:31:14.675Z,13.60
2019-05-22T09:33:44.298Z,13.70
2019-05-22T09:36:14.888Z,13.60
2019-05-22T09:38:44.583Z,13.70
2019-05-22T09:41:14.303Z,13.70
2019-05-22T09:43:43.773Z,13.70
2019-05-22T09:46:13.751Z,13.80
2019-05-22T09:48:43.694Z,13.90
2019-05-22T09:51:13.061Z,14.00
2019-05-22T09:53:43.347Z,14.10
2019-05-22T09:56:13.077Z,14.10
2019-05-22T09:58:42.459Z,14.00
2019-05-22T10:01:12.458Z,14.00
2019-05-22T10:03:42.271Z,14.00
2019-05-22T10:06:12.377Z,13.90
2019-05-22T10:08:41.761Z,13.90
2019-05-22T10:11:12.377Z,13.90
2019-05-22T10:13:42.035Z,13.80
2019-05-22T10:16:11.565Z,13.80
2019-05-22T10:18:41.567Z,13.80
2019-05-22T10:21:11.175Z,13.80
2019-05-22T10:23:40.851Z,13.90
2019-05-22T10:26:10.945Z,13.90
2019-05-22T10:28:40.994Z,13.90
2019-05-22T10:31:11.876Z,13.90
2019-05-22T10:33:41.977Z,13.80
2019-05-22T10:36:11.903Z,13.70
2019-05-22T10:38:41.543Z,13.60
2019-05-22T10:41:11.310Z,13.60
2019-05-22T10:43:40.726Z,13.50
2019-05-22T10:46:10.389Z,13.40
2019-05-22T10:48:40.684Z,13.40
2019-05-22T10:51:10.367Z,13.30
2019-05-22T10:53:39.795Z,13.30
2019-05-22T10:56:09.727Z,13.30
2019-05-22T10:58:39.385Z,13.30
2019-05-22T11:01:09.986Z,13.40
2019-05-22T11:03:39.820Z,13.50
2019-05-22T11:06:09.442Z,13.50
2019-05-22T11:08:39.493Z,13.70
2019-05-22T11:11:09.639Z,13.80
2019-05-22T11:13:40.385Z,13.90
2019-05-22T11:16:10.713Z,14.00
2019-05-22T11:18:40.593Z,14.00
2019-05-22T11:21:10.554Z,14.10
2019-05-22T11:23:51.095Z,14.10
2019-05-22T11:26:11.815Z,14.10
2019-05-22T11:28:42.250Z,14.10
2019-05-22T11:31:11.789Z,14.10
2019-05-22T11:33:41.374Z,14.20
2019-05-22T11:36:11.522Z,14.20
2019-05-22T11:38:41.001Z,14.30
2019-05-22T11:41:11.224Z,14.40
2019-05-22T11:43:40.703Z,14.50
2019-05-22T11:46:10.420Z,14.50
2019-05-22T11:48:40.266Z,14.50
2019-05-22T11:51:10.556Z,14.50
2019-05-22T11:53:39.967Z,14.50
2019-05-22T11:56:09.399Z,14.50
2019-05-22T11:58:39.291Z,14.50
2019-05-22T12:01:11.479Z,14.50
2019-05-22T12:03:43.346Z,14.40
2019-05-22T12:06:13.544Z,14.40
2019-05-22T12:08:43.530Z,14.40
2019-05-22T12:11:16.373Z,14.30
2019-05-22T12:13:47.000Z,14.30
2019-05-22T12:16:16.838Z,14.30
2019-05-22T12:18:46.683Z,14.40
2019-05-22T12:21:16.275Z,14.40
2019-05-22T12:23:45.695Z,14.40
2019-05-22T12:26:15.810Z,14.40
2019-05-22T12:28:45.265Z,14.40
2019-05-22T12:31:15.492Z,14.40
2019-05-22T12:33:45.459Z,14.40
2019-05-22T12:36:14.986Z,14.40
2019-05-22T12:38:44.584Z,14.40
2019-05-22T12:41:14.747Z,14.40
2019-05-22T12:43:45.112Z,14.40
2019-05-22T12:46:14.874Z,14.50
2019-05-22T12:48:45.264Z,14.50
2019-05-22T12:51:15.635Z,14.50
2019-05-22T12:53:45.697Z,14.40
2019-05-22T12:56:15.443Z,14.40
2019-05-22T12:58:46.434Z,14.30
2019-05-22T13:01:16.322Z,14.20
2019-05-22T13:03:48.516Z,14.20
2019-05-22T13:06:18.036Z,14.20
2019-05-22T13:08:47.560Z,14.30
2019-05-22T13:11:17.164Z,14.40
2019-05-22T13:13:47.273Z,14.50
2019-05-22T13:16:17.075Z,14.70
2019-05-22T13:18:47.620Z,14.80
2019-05-22T13:21:20.642Z,14.80
2019-05-22T13:23:51.430Z,14.90
2019-05-22T13:26:23.209Z,15.00
2019-05-22T13:28:54.151Z,15.10
2019-05-22T13:31:23.830Z,15.20
2019-05-22T13:33:55.137Z,15.20
2019-05-22T13:36:24.542Z,15.30
2019-05-22T13:38:54.326Z,15.30
2019-05-22T13:41:23.694Z,15.40
2019-05-22T13:43:54.430Z,15.40
2019-05-22T13:46:24.356Z,15.50
2019-05-22T13:48:53.903Z,15.70
2019-05-22T13:51:23.752Z,15.90
2019-05-22T13:53:53.651Z,16.20
2019-05-22T13:56:25.502Z,16.40
2019-05-22T13:58:56.148Z,16.70
2019-05-22T14:01:26.193Z,17.00
2019-05-22T14:03:55.921Z,17.30
2019-05-22T14:06:25.905Z,17.60
2019-05-22T14:08:55.534Z,17.80
2019-05-22T14:11:24.985Z,18.00
2019-05-22T14:13:55.211Z,17.90
2019-05-22T14:16:24.652Z,17.80
2019-05-22T14:18:54.048Z,17.70
2019-05-22T14:21:23.443Z,17.60
2019-05-22T14:23:52.879Z,17.50
2019-05-22T14:26:22.400Z,17.50
2019-05-22T14:28:52.023Z,17.50
2019-05-22T14:31:22.028Z,17.50
2019-05-22T14:33:51.830Z,17.40
2019-05-22T14:36:21.924Z,17.40
2019-05-22T14:38:52.191Z,17.40
2019-05-22T14:41:21.621Z,17.40
2019-05-22T14:43:51.183Z,17.30
2019-05-22T14:46:20.965Z,17.10
2019-05-22T14:48:50.664Z,16.90
2019-05-22T14:51:21.140Z,16.80
2019-05-22T14:53:52.103Z,16.70
2019-05-22T14:56:22.325Z,16.70
2019-05-22T14:58:51.710Z,16.70
2019-05-22T15:01:22.416Z,16.70
2019-05-22T15:03:52.081Z,16.70
2019-05-22T15:06:21.588Z,16.80
2019-05-22T15:08:51.012Z,16.80
2019-05-22T15:11:20.704Z,16.90
2019-05-22T15:13:50.569Z,16.90
2019-05-22T15:16:20.397Z,16.90
2019-05-22T15:18:49.788Z,16.90
2019-05-22T15:21:19.714Z,16.90
2019-05-22T15:23:50.923Z,17.00
2019-05-22T15:26:20.546Z,16.90
2019-05-22T15:28:50.036Z,17.00
2019-05-22T15:31:19.445Z,17.10
2019-05-22T15:33:48.843Z,17.20
2019-05-22T15:36:21.601Z,17.30
2019-05-22T15:38:51.818Z,17.30
2019-05-22T15:41:21.311Z,17.30
2019-05-22T15:43:53.485Z,17.30
2019-05-22T15:46:24.472Z,17.30
2019-05-22T15:48:55.047Z,17.50
2019-05-22T15:51:28.026Z,17.70
2019-05-22T15:54:00.564Z,17.80
2019-05-22T15:56:31.684Z,17.70
2019-05-22T15:59:05.063Z,17.50
2019-05-22T16:01:36.801Z,17.30
2019-05-22T16:04:07.717Z,17.00
2019-05-22T16:06:38.455Z,16.70
2019-05-22T16:09:10.979Z,16.60
2019-05-22T16:11:41.283Z,16.60
2019-05-22T16:14:11.450Z,16.80
2019-05-22T16:16:41.734Z,17.00
2019-05-22T16:19:11.476Z,17.30
2019-05-22T16:21:46.556Z,17.60
2019-05-22T16:24:16.744Z,18.10
2019-05-22T16:26:48.642Z,18.50
2019-05-22T16:29:18.512Z,18.70
2019-05-22T16:31:48.288Z,18.90
2019-05-22T16:34:19.513Z,18.80
2019-05-22T16:36:49.300Z,18.60
2019-05-22T16:39:21.291Z,18.20
2019-05-22T16:41:51.263Z,17.90
2019-05-22T16:44:21.291Z,17.80
2019-05-22T16:46:51.016Z,17.70
2019-05-22T16:49:20.686Z,17.50
2019-05-22T16:51:51.091Z,17.50
2019-05-22T16:54:21.231Z,18.10
2019-05-22T16:56:51.613Z,18.30
2019-05-22T16:59:22.056Z,18.60
2019-05-22T17:01:59.676Z,19.90
2019-05-22T17:04:22.841Z,21.40
2019-05-22T17:06:52.582Z,22.40
2019-05-22T17:09:23.114Z,23.30
2019-05-22T17:11:52.520Z,23.90
2019-05-22T17:14:23.623Z,23.20
2019-05-22T17:16:53.120Z,22.00
2019-05-22T17:19:27.063Z,21.20
2019-05-22T17:21:54.527Z,20.50
2019-05-22T17:24:24.441Z,19.80
2019-05-22T17:26:54.662Z,19.10
2019-05-22T17:29:25.940Z,18.40
2019-05-22T17:31:55.538Z,17.90
2019-05-22T17:34:37.265Z,17.50
2019-05-22T17:37:14.265Z,17.20
2019-05-22T17:39:48.901Z,16.90
2019-05-22T17:42:21.448Z,16.70
2019-05-22T17:44:52.859Z,16.50
2019-05-22T17:47:24.852Z,16.40
2019-05-22T17:49:54.568Z,16.40
2019-05-22T17:52:24.387Z,16.30
2019-05-22T17:54:54.091Z,16.30
2019-05-22T17:57:24.250Z,16.20
2019-05-22T17:59:53.709Z,16.20
2019-05-22T18:02:26.168Z,16.10
2019-05-22T18:04:55.782Z,15.90
2019-05-22T18:07:26.425Z,15.80
2019-05-22T18:09:56.061Z,15.70
2019-05-22T18:12:26.959Z,15.60
2019-05-22T18:14:56.535Z,15.50
2019-05-22T18:17:26.549Z,15.30
2019-05-22T18:19:56.161Z,15.20
2019-05-22T18:22:26.255Z,15.10
2019-05-22T18:24:55.880Z,15.00
2019-05-22T18:27:25.578Z,14.90
2019-05-22T18:29:55.311Z,14.80
2019-05-22T18:32:24.847Z,14.70
2019-05-22T18:34:54.276Z,14.60
2019-05-22T18:37:23.682Z,14.50
2019-05-22T18:39:53.090Z,14.40
2019-05-22T18:42:22.549Z,14.30
2019-05-22T18:44:52.027Z,14.30
2019-05-22T18:47:21.626Z,14.20
2019-05-22T18:49:51.220Z,14.10
2019-05-22T18:52:20.819Z,14.00
2019-05-22T18:54:50.247Z,13.90
2019-05-22T18:57:20.350Z,13.80
2019-05-22T18:59:49.797Z,13.70
2019-05-22T19:02:19.175Z,13.60
2019-05-22T19:04:48.592Z,13.50
2019-05-22T19:07:17.963Z,13.50
2019-05-22T19:09:47.385Z,13.40
2019-05-22T19:12:17.571Z,13.30
2019-05-22T19:14:47.213Z,13.30
2019-05-22T19:17:16.864Z,13.20
2019-05-22T19:19:46.852Z,13.10
2019-05-22T19:22:16.827Z,13.00
2019-05-22T19:24:46.237Z,12.90
2019-05-22T19:27:15.631Z,12.90
2019-05-22T19:29:45.145Z,12.80
2019-05-22T19:32:15.056Z,12.80
2019-05-22T19:34:44.518Z,12.80
2019-05-22T19:37:13.867Z,12.70
2019-05-22T19:39:43.565Z,12.70
2019-05-22T19:42:13.159Z,12.60
2019-05-22T19:44:42.603Z,12.60
2019-05-22T19:47:12.305Z,12.60
2019-05-22T19:49:43.861Z,12.50
2019-05-22T19:52:14.309Z,12.50
2019-05-22T19:54:43.760Z,12.40
2019-05-22T19:57:13.987Z,12.40
2019-05-22T19:59:43.828Z,12.40
2019-05-22T20:02:15.227Z,12.40
2019-05-22T20:04:45.189Z,12.40
2019-05-22T20:07:15.742Z,12.40
2019-05-22T20:09:45.682Z,12.30
2019-05-22T20:12:15.369Z,12.30
2019-05-22T20:14:45.527Z,12.20
2019-05-22T20:17:15.739Z,12.20
2019-05-22T20:19:45.247Z,12.20
2019-05-22T20:22:14.834Z,12.20
2019-05-22T20:24:44.226Z,12.20
2019-05-22T20:27:14.023Z,12.10
2019-05-22T20:29:43.434Z,12.00
2019-05-22T20:32:15.336Z,12.00
2019-05-22T20:34:44.839Z,12.00
2019-05-22T20:37:14.267Z,11.90
2019-05-22T20:39:44.366Z,11.90
2019-05-22T20:42:14.039Z,11.90
2019-05-22T20:44:43.579Z,11.90
2019-05-22T20:47:13.937Z,11.80
2019-05-22T20:49:46.743Z,11.80
2019-05-22T20:52:16.442Z,11.80
2019-05-22T20:54:47.056Z,11.80
2019-05-22T20:57:20.020Z,11.70
2019-05-22T20:59:48.301Z,11.70
2019-05-22T21:02:19.835Z,11.70
2019-05-22T21:04:51.336Z,11.70
2019-05-22T21:07:26.694Z,11.60
2019-05-22T21:09:56.228Z,11.60
2019-05-22T21:12:27.360Z,11.50
2019-05-22T21:14:57.484Z,11.50
2019-05-22T21:17:28.445Z,11.40
2019-05-22T21:19:58.031Z,11.40
2019-05-22T21:22:27.408Z,11.30
2019-05-22T21:24:57.385Z,11.30
2019-05-22T21:27:27.719Z,11.20
2019-05-22T21:29:57.305Z,11.20
2019-05-22T21:32:27.614Z,11.10
2019-05-22T21:34:57.248Z,11.10
2019-05-22T21:37:26.802Z,11.10
2019-05-22T21:39:56.673Z,11.00
2019-05-22T21:42:27.885Z,11.00
2019-05-22T21:44:57.799Z,11.00
2019-05-22T21:47:27.586Z,10.90
2019-05-22T21:49:57.612Z,10.90
2019-05-22T21:52:28.254Z,10.90
2019-05-22T21:54:57.784Z,10.90
2019-05-22T21:57:27.963Z,10.90
2019-05-22T22:00:00.480Z,10.90
2019-05-22T22:02:37.725Z,10.80
2019-05-22T22:05:08.507Z,10.80
2019-05-22T22:07:37.885Z,10.80
2019-05-22T22:10:07.557Z,10.80
2019-05-22T22:12:37.277Z,10.70
2019-05-22T22:15:08.479Z,10.70
2019-05-22T22:17:38.329Z,10.70
2019-05-22T22:20:08.260Z,10.70
2019-05-22T22:22:38.062Z,10.70
2019-05-22T22:25:08.512Z,10.70
2019-05-22T22:27:38.767Z,10.60
2019-05-22T22:30:15.991Z,10.60
2019-05-22T22:32:46.140Z,10.50
2019-05-22T22:35:16.436Z,10.50
2019-05-22T22:37:46.357Z,10.50
2019-05-22T22:40:18.584Z,10.50
2019-05-22T22:42:49.555Z,10.50
2019-05-22T22:45:24.547Z,10.50
2019-05-22T22:47:54.482Z,10.40
2019-05-22T22:50:25.402Z,10.40
2019-05-22T22:52:56.544Z,10.30
2019-05-22T22:55:26.995Z,10.30
2019-05-22T22:57:56.855Z,10.20
2019-05-22T23:00:34.183Z,10.30
2019-05-22T23:03:04.300Z,10.20
2019-05-22T23:05:36.283Z,10.20
2019-05-22T23:08:05.995Z,10.20
2019-05-22T23:10:36.298Z,10.20
2019-05-22T23:13:07.023Z,10.10
2019-05-22T23:15:37.846Z,10.10
2019-05-22T23:18:07.224Z,10.10
2019-05-22T23:20:36.013Z,10.10
2019-05-22T23:23:04.109Z,10.00
2019-05-22T23:25:34.134Z,10.00
2019-05-22T23:28:05.500Z,10.00
2019-05-22T23:30:35.126Z,10.00
2019-05-22T23:33:04.851Z,10.00
2019-05-22T23:35:34.563Z,9.90
2019-05-22T23:38:04.831Z,9.80
2019-05-22T23:40:35.412Z,9.80
2019-05-22T23:43:05.620Z,9.80
2019-05-22T23:45:35.907Z,9.80
2019-05-22T23:48:14.239Z,9.80
2019-05-22T23:50:44.659Z,9.80
2019-05-22T23:53:16.288Z,9.80
2019-05-22T23:55:46.313Z,9.80
2019-05-22T23:58:17.384Z,9.80
